Time;durP1;ratioP1;P1;durP2;ratioP2;P2;SDS_P1;SDS_P2;PMS_P1;PMS_P2;Temp;Humidity;BMP_temperature;BMP_pressure;BME280_temperature;BME280_humidity;BME280_pressure;Samples;Min_cycle;Max_cycle;Signal;HPM_P1;HPM_P2
2022/11/01 00:00:16;;;;;;;;;;;;;;;12.77;62.68;95923.78;5033765;28;1034;-58
2022/11/01 00:02:42;;;;;;;;;;;;;;;12.88;62.34;95919.97;5033688;28;1114;-59
2022/11/01 00:05:08;;;;;;;;;;;;;;;12.82;62.16;95929.50;5034071;28;982;-59
2022/11/01 00:07:35;;;;;;;;;;;;;;;12.67;62.51;95926.56;5033532;28;1074;-59
2022/11/01 00:10:01;;;;;;;;;;;;;;;12.61;62.75;95921.78;5033733;28;1123;-59
2022/11/01 00:12:29;;;;;;;;;;;;;;;12.77;62.37;95921.09;5033517;28;1097;-59
2022/11/01 00:14:55;;;;;;;;;;;;;;;13.01;61.47;95928.50;5033728;28;990;-59
2022/11/01 00:17:21;;;;;;;;;;;;;;;13.15;60.58;95937.81;5033331;28;1914;-59
2022/11/01 00:19:47;;;;;;;;;;;;;;;12.99;61.14;95930.47;5033198;28;1222;-59
2022/11/01 00:22:13;;;;;;;;;;;;;;;12.74;61.72;95931.28;5033728;28;999;-59
2022/11/01 00:24:39;;;;;;;;;;;;;;;12.53;62.51;95928.94;5033366;28;1117;-59
2022/11/01 00:27:05;;;;;;;;;;;;;;;12.46;62.72;95923.34;5033360;28;1085;-59
2022/11/01 00:29:31;;;;;;;;;;;;;;;12.44;62.83;95928.84;5033476;28;1057;-59
2022/11/01 00:31:58;;;;;;;;;;;;;;;12.57;63.09;95933.00;5035516;28;1147;-59
2022/11/01 00:34:24;;;;;;;;;;;;;;;12.67;62.75;95921.19;5053040;28;1025;-59
2022/11/01 00:36:50;;;;;;;;;;;;;;;12.72;62.73;95914.50;5053325;28;1906;-59
2022/11/01 00:39:16;;;;;;;;;;;;;;;12.73;62.77;95919.72;5053192;28;1284;-59
2022/11/01 00:41:42;;;;;;;;;;;;;;;12.71;63.42;95921.72;5053233;28;1014;-59
2022/11/01 00:44:09;;;;;;;;;;;;;;;12.89;62.62;95921.69;5053116;28;1129;-59
2022/11/01 00:46:35;;;;;;;;;;;;;;;12.75;62.62;95919.53;5053055;28;1080;-59
2022/11/01 00:49:02;;;;;;;;;;;;;;;12.62;63.26;95920.81;5052974;28;1066;-59
2022/11/01 00:51:28;;;;;;;;;;;;;;;12.65;63.02;95915.13;5053150;28;1030;-59
2022/11/01 00:53:54;;;;;;;;;;;;;;;12.70;62.55;95925.41;5034306;28;1132;-59
2022/11/01 00:56:20;;;;;;;;;;;;;;;12.64;62.60;95921.50;5033136;28;978;-59
2022/11/01 00:58:46;;;;;;;;;;;;;;;12.63;62.60;95919.78;5032935;28;1907;-59
2022/11/01 01:01:12;;;;;;;;;;;;;;;12.64;62.91;95923.34;5018576;28;1109;-59
2022/11/01 01:03:38;;;;;;;;;;;;;;;12.54;62.88;95923.44;5037029;28;954;-59
2022/11/01 01:06:04;;;;;;;;;;;;;;;12.57;62.37;95916.91;5037201;28;1050;-59
2022/11/01 01:08:30;;;;;;;;;;;;;;;12.63;61.75;95925.16;5036815;28;1093;-59
2022/11/01 01:10:56;;;;;;;;;;;;;;;12.39;62.67;95923.13;5037046;28;1065;-59
2022/11/01 01:13:22;;;;;;;;;;;;;;;12.25;63.28;95923.66;5036881;28;1053;-59
2022/11/01 01:15:48;;;;;;;;;;;;;;;12.21;63.31;95925.78;5036891;28;1073;-59
2022/11/01 01:18:15;;;;;;;;;;;;;;;12.18;63.44;95922.56;5036504;28;1906;-60
2022/11/01 01:20:41;;;;;;;;;;;;;;;12.21;63.14;95923.09;5036668;28;1058;-59
2022/11/01 01:23:07;;;;;;;;;;;;;;;12.20;62.85;95926.78;5036909;28;1014;-59
2022/11/01 01:25:33;;;;;;;;;;;;;;;12.05;63.99;95929.16;5036714;28;1026;-59
2022/11/01 01:27:59;;;;;;;;;;;;;;;12.04;64.00;95932.81;5036763;28;1061;-59
2022/11/01 01:30:25;;;;;;;;;;;;;;;12.21;63.64;95927.63;5026331;28;1056;-59
2022/11/01 01:32:51;;;;;;;;;;;;;;;12.19;63.89;95925.09;5056428;28;977;-59
2022/11/01 01:35:17;;;;;;;;;;;;;;;12.25;63.70;95924.47;5056520;28;978;-59
2022/11/01 01:37:43;;;;;;;;;;;;;;;12.07;63.85;95919.13;5056705;28;1997;-59
2022/11/01 01:40:09;;;;;;;;;;;;;;;12.03;64.20;95922.25;5056369;28;1245;-59
2022/11/01 01:42:37;;;;;;;;;;;;;;;12.05;63.87;95921.09;5056336;28;1008;-59
2022/11/01 01:45:04;;;;;;;;;;;;;;;12.02;64.15;95931.28;5056270;28;991;-59
2022/11/01 01:47:32;;;;;;;;;;;;;;;12.05;63.92;95929.16;5056021;28;985;-59
2022/11/01 01:50:01;;;;;;;;;;;;;;;12.03;64.12;95935.66;5056112;28;1109;-59
2022/11/01 01:52:32;;;;;;;;;;;;;;;12.04;63.95;95938.16;5049057;28;1169;-59
2022/11/01 01:55:01;;;;;;;;;;;;;;;11.96;63.98;95934.56;5036109;28;1058;-59
2022/11/01 01:57:27;;;;;;;;;;;;;;;11.87;64.04;95938.94;5035853;28;1988;-59
2022/11/01 01:59:53;;;;;;;;;;;;;;;11.75;64.72;95935.63;5035960;28;1066;-59
2022/11/01 02:02:19;;;;;;;;;;;;;;;11.70;64.73;95937.91;5036121;28;1071;-59
2022/11/01 02:05:08;;;;;;;;;;;;;;;11.81;64.57;95939.56;5036128;28;966;-59
2022/11/01 02:07:34;;;;;;;;;;;;;;;11.87;63.84;95947.81;5035930;28;1049;-59
2022/11/01 02:10:00;;;;;;;;;;;;;;;11.75;64.16;95945.53;5035767;28;1118;-59
2022/11/01 02:12:32;;;;;;;;;;;;;;;11.83;64.22;95941.09;5034909;28;1132;-59
2022/11/01 02:14:58;;;;;;;;;;;;;;;11.87;63.58;95938.94;5035737;28;1109;-59
2022/11/01 02:17:29;;;;;;;;;;;;;;;11.86;63.80;95948.00;5035934;28;1902;-59
2022/11/01 02:20:09;;;;;;;;;;;;;;;11.77;64.03;95943.53;5035564;28;1137;-59
2022/11/01 02:22:54;;;;;;;;;;;;;;;11.77;64.54;95944.38;5035676;28;1002;-59
2022/11/01 02:25:38;;;;;;;;;;;;;;;11.87;64.74;95950.50;5035865;28;1041;-59
2022/11/01 02:28:08;;;;;;;;;;;;;;;11.85;64.42;95952.50;5035665;28;973;-59
2022/11/01 02:30:39;;;;;;;;;;;;;;;11.67;64.91;95957.81;5044083;28;1052;-59
2022/11/01 02:33:21;;;;;;;;;;;;;;;11.46;65.02;95954.53;5055381;28;1057;-59
2022/11/01 02:35:53;;;;;;;;;;;;;;;11.47;64.78;95953.53;5055314;28;1041;-59
2022/11/01 02:38:45;;;;;;;;;;;;;;;11.33;65.08;95954.84;5055165;28;1963;-59
2022/11/01 02:41:15;;;;;;;;;;;;;;;11.31;65.25;95956.84;5052957;28;1226;-59
2022/11/01 02:44:01;;;;;;;;;;;;;;;11.25;65.12;95957.41;5055119;28;1121;-59
2022/11/01 02:49:18;;;;;;;;;;;;;;;11.27;65.34;95969.66;5054996;28;1042;-59
2022/11/01 02:51:45;;;;;;;;;;;;;;;11.51;64.56;95974.53;5054054;28;1195;-59
2022/11/01 02:54:19;;;;;;;;;;;;;;;11.47;64.80;95972.28;5034796;28;1086;-59
2022/11/01 02:56:45;;;;;;;;;;;;;;;11.33;65.79;95971.75;5035095;28;1910;-59
2022/11/01 02:59:15;;;;;;;;;;;;;;;11.47;65.49;95978.47;5035019;28;955;-59
2022/11/01 03:01:43;;;;;;;;;;;;;;;11.59;65.30;95975.59;5034987;28;1152;-59
2022/11/01 03:04:09;;;;;;;;;;;;;;;11.75;65.06;95985.72;5034910;28;979;-59
2022/11/01 03:06:38;;;;;;;;;;;;;;;11.78;65.00;95980.91;5034767;28;1108;-59
2022/11/01 03:09:08;;;;;;;;;;;;;;;11.78;65.09;95974.69;5034645;28;1046;-59
2022/11/01 03:11:41;;;;;;;;;;;;;;;11.71;64.83;95982.47;5034580;28;1085;-59
2022/11/01 03:14:30;;;;;;;;;;;;;;;11.56;64.94;95981.28;5034696;28;1125;-59
2022/11/01 03:17:14;;;;;;;;;;;;;;;11.37;65.03;95983.03;5017087;28;1906;-59
2022/11/01 03:19:40;;;;;;;;;;;;;;;11.20;65.57;95989.13;5034362;28;1117;-59
2022/11/01 03:22:15;;;;;;;;;;;;;;;11.24;65.47;95993.19;5016950;28;1018;-59
2022/11/01 03:24:53;;;;;;;;;;;;;;;11.24;64.92;95996.72;5033377;28;1093;-59
2022/11/01 03:27:41;;;;;;;;;;;;;;;11.36;64.74;95993.88;5034309;28;1049;-59
2022/11/01 03:30:08;;;;;;;;;;;;;;;11.29;64.71;95993.63;5039177;28;1084;-59
2022/11/01 03:32:45;;;;;;;;;;;;;;;11.18;65.02;95991.94;5054099;28;1083;-59
2022/11/01 03:35:17;;;;;;;;;;;;;;;11.08;65.27;95993.81;5054264;28;1069;-59
2022/11/01 03:37:45;;;;;;;;;;;;;;;11.12;65.26;95997.88;5054257;28;1969;-59
2022/11/01 03:40:13;;;;;;;;;;;;;;;11.12;64.86;95995.22;5053890;28;1372;-59
2022/11/01 03:42:42;;;;;;;;;;;;;;;11.13;64.90;95997.75;5053979;28;1028;-59
2022/11/01 03:45:10;;;;;;;;;;;;;;;11.19;64.72;96006.16;5053911;28;1045;-58
2022/11/01 03:47:37;;;;;;;;;;;;;;;11.06;65.13;96010.00;5053912;28;1112;-58
2022/11/01 03:50:21;;;;;;;;;;;;;;;11.14;65.27;96001.25;5054293;28;1051;-58
2022/11/01 03:52:48;;;;;;;;;;;;;;;11.09;65.11;96007.03;5043923;28;1179;-58
2022/11/01 03:55:18;;;;;;;;;;;;;;;11.05;65.72;96005.63;5034024;28;1037;-58
2022/11/01 03:57:44;;;;;;;;;;;;;;;11.05;65.38;96007.47;5034085;28;1997;-58
2022/11/01 04:00:16;;;;;;;;;;;;;;;11.09;66.02;95999.00;5033872;28;1046;-58
2022/11/01 04:02:43;;;;;;;;;;;;;;;11.07;65.37;96000.97;5033812;28;1038;-58
2022/11/01 04:05:09;;;;;;;;;;;;;;;11.03;65.88;96004.09;5033756;28;1057;-58
2022/11/01 04:07:35;;;;;;;;;;;;;;;10.97;65.75;96002.84;5033536;28;1041;-58
2022/11/01 04:10:02;;;;;;;;;;;;;;;10.80;66.19;96003.56;5033586;28;1160;-58
2022/11/01 04:12:28;;;;;;;;;;;;;;;10.89;65.97;96005.38;5033690;28;958;-58
2022/11/01 04:20:32;;;;;;;;;;;;;;;10.68;67.15;96005.50;5033232;28;1093;-58
2022/11/01 04:22:59;;;;;;;;;;;;;;;10.63;67.19;96011.28;5033592;28;959;-58
2022/11/01 04:25:26;;;;;;;;;;;;;;;10.58;67.17;96005.50;5033461;28;1037;-58
2022/11/01 04:27:55;;;;;;;;;;;;;;;10.66;67.01;96005.69;5033383;28;1025;-58
2022/11/01 04:30:22;;;;;;;;;;;;;;;10.86;66.31;96006.50;5039966;28;1126;-58
2022/11/01 04:32:48;;;;;;;;;;;;;;;10.75;66.80;96017.34;5053174;28;1069;-58
2022/11/01 04:35:14;;;;;;;;;;;;;;;10.71;67.09;96011.41;5052858;28;840;-58
2022/11/01 04:37:40;;;;;;;;;;;;;;;10.69;67.07;96007.22;5053055;28;1906;-58
2022/11/01 04:40:06;;;;;;;;;;;;;;;10.69;66.25;96015.22;5053176;28;1277;-58
2022/11/01 04:42:33;;;;;;;;;;;;;;;10.56;66.52;96010.16;5053128;28;1013;-58
2022/11/01 04:45:00;;;;;;;;;;;;;;;10.48;66.27;96013.53;5053043;28;1050;-58
2022/11/01 04:47:26;;;;;;;;;;;;;;;10.49;66.19;96019.72;5052951;28;986;-58
2022/11/01 04:49:52;;;;;;;;;;;;;;;10.56;66.14;96015.50;5053227;28;1026;-58
2022/11/01 04:52:18;;;;;;;;;;;;;;;10.63;66.23;96021.16;5047538;28;1112;-58
2022/11/01 04:54:44;;;;;;;;;;;;;;;10.55;66.27;96017.34;5033205;28;998;-58
2022/11/01 04:57:23;;;;;;;;;;;;;;;10.50;66.35;96018.75;5015514;28;1906;-58
2022/11/01 04:59:50;;;;;;;;;;;;;;;10.46;66.30;96020.84;5033004;28;1090;-58
2022/11/01 05:02:16;;;;;;;;;;;;;;;10.45;66.21;96020.97;5033251;28;977;-59
2022/11/01 05:04:42;;;;;;;;;;;;;;;10.45;66.04;96015.63;5033020;28;1345;-59
2022/11/01 05:07:08;;;;;;;;;;;;;;;10.39;66.00;96013.53;5033002;28;1090;-58
2022/11/01 05:09:34;;;;;;;;;;;;;;;10.34;66.08;96022.81;5032875;28;1077;-58
2022/11/01 05:12:00;;;;;;;;;;;;;;;10.43;65.80;96026.47;5032978;28;1050;-59
2022/11/01 05:14:26;;;;;;;;;;;;;;;10.42;66.02;96024.78;5032761;28;1093;-59
2022/11/01 05:16:56;;;;;;;;;;;;;;;10.45;66.31;96029.00;5015336;28;1993;-59
2022/11/01 05:19:22;;;;;;;;;;;;;;;10.43;66.15;96037.16;5032746;28;1249;-59
2022/11/01 05:21:49;;;;;;;;;;;;;;;10.46;66.51;96033.38;5032976;28;1033;-58
2022/11/01 05:24:15;;;;;;;;;;;;;;;10.57;65.95;96038.59;5032869;28;1069;-58
2022/11/01 05:26:41;;;;;;;;;;;;;;;10.69;65.76;96045.50;5015311;28;1046;-58
2022/11/01 05:29:07;;;;;;;;;;;;;;;10.79;65.69;96044.66;5015152;28;1045;-58
2022/11/01 05:31:33;;;;;;;;;;;;;;;10.80;65.79;96043.69;5031909;28;1060;-59
2022/11/01 05:33:59;;;;;;;;;;;;;;;11.03;64.83;96050.44;5052803;28;970;-58
2022/11/01 05:36:25;;;;;;;;;;;;;;;10.93;64.89;96047.75;5052697;28;1103;-58
2022/11/01 05:38:54;;;;;;;;;;;;;;;10.76;65.63;96048.47;5052530;28;1914;-58
2022/11/01 05:41:21;;;;;;;;;;;;;;;10.83;65.92;96056.75;5052463;28;1226;-58
2022/11/01 05:43:47;;;;;;;;;;;;;;;10.92;66.28;96056.75;5052499;28;989;-58
2022/11/01 05:46:13;;;;;;;;;;;;;;;11.03;66.46;96063.81;5051285;28;1105;-58
2022/11/01 05:48:39;;;;;;;;;;;;;;;11.30;65.38;96055.03;5055094;28;997;-58
2022/11/01 05:51:06;;;;;;;;;;;;;;;11.45;65.52;96059.94;5056171;28;1061;-57
2022/11/01 05:53:32;;;;;;;;;;;;;;;11.77;64.45;96059.56;5040155;28;1179;-58
2022/11/01 05:55:59;;;;;;;;;;;;;;;12.47;62.64;96076.06;5018586;28;1042;-57
2022/11/01 05:58:25;;;;;;;;;;;;;;;14.37;57.08;96070.34;5035794;28;1983;-58
2022/11/01 06:00:58;;;;;;;;;;;;;;;14.96;55.05;96076.59;5036216;28;1018;-58
2022/11/01 06:03:24;;;;;;;;;;;;;;;14.94;55.22;96085.84;5035890;28;1140;-58
2022/11/01 06:05:50;;;;;;;;;;;;;;;14.56;56.52;96086.22;5035884;28;1054;-58
2022/11/01 06:08:16;;;;;;;;;;;;;;;14.34;57.35;96087.66;5035911;28;1064;-59
2022/11/01 06:10:42;;;;;;;;;;;;;;;14.27;58.33;96083.09;5018195;28;1031;-58
2022/11/01 06:13:08;;;;;;;;;;;;;;;14.23;59.19;96082.56;5035786;28;994;-58
2022/11/01 06:15:34;;;;;;;;;;;;;;;14.23;58.91;96087.94;5035814;28;899;-58
2022/11/01 06:21:35;;;;;;;;;;;;;;;16.90;52.24;96092.81;5026874;28;1615;-58
2022/11/01 06:24:01;;;;;;;;;;;;;;;17.89;49.85;96092.94;5035575;28;1109;-58
2022/11/01 06:26:28;;;;;;;;;;;;;;;20.97;43.23;96115.91;5035601;28;1037;-59
2022/11/01 06:28:54;;;;;;;;;;;;;;;24.29;36.79;96129.13;5035323;28;1101;-59
2022/11/01 06:31:20;;;;;;;;;;;;;;;26.98;32.66;96148.06;5050278;28;1172;-59
2022/11/01 06:33:50;;;;;;;;;;;;;;;28.15;30.54;96149.59;5055372;28;1112;-59
2022/11/01 06:36:16;;;;;;;;;;;;;;;25.08;34.26;96132.13;5055315;28;1057;-59
2022/11/01 06:38:42;;;;;;;;;;;;;;;21.78;39.72;96117.84;5055402;28;1993;-59
2022/11/01 06:41:08;;;;;;;;;;;;;;;19.44;44.68;96097.44;5055321;28;1282;-59
2022/11/01 06:43:34;;;;;;;;;;;;;;;18.94;46.62;96098.38;5055041;28;1069;-58
2022/11/01 06:46:00;;;;;;;;;;;;;;;18.29;47.94;96092.69;5055052;28;1105;-58
2022/11/01 06:48:27;;;;;;;;;;;;;;;17.29;50.85;96097.28;5054847;28;1121;-58
2022/11/01 06:50:54;;;;;;;;;;;;;;;16.65;52.28;96100.13;5055031;28;1034;-58
2022/11/01 06:53:21;;;;;;;;;;;;;;;16.29;53.76;96103.31;5040828;28;1136;-58
2022/11/01 06:55:47;;;;;;;;;;;;;;;16.18;54.12;96107.25;5017604;28;1014;-58
2022/11/01 06:58:13;;;;;;;;;;;;;;;16.25;54.24;96096.59;5034728;28;1910;-58
2022/11/01 07:00:39;;;;;;;;;;;;;;;16.33;54.03;96098.41;5034954;28;1101;-58
2022/11/01 07:03:06;;;;;;;;;;;;;;;16.39;54.38;96093.19;5034878;28;961;-58
2022/11/01 07:05:34;;;;;;;;;;;;;;;17.44;51.96;96096.50;5034975;28;1020;-58
2022/11/01 07:08:00;;;;;;;;;;;;;;;18.38;48.87;96098.84;5034984;28;973;-58
2022/11/01 07:10:26;;;;;;;;;;;;;;;20.38;44.73;96112.66;5034629;28;1296;-58
2022/11/01 07:12:56;;;;;;;;;;;;;;;21.14;42.53;96111.78;5034687;28;1085;-58
2022/11/01 07:15:22;;;;;;;;;;;;;;;22.58;40.12;96118.66;5034554;28;1009;-59
2022/11/01 07:17:48;;;;;;;;;;;;;;;24.90;35.87;96125.59;5034413;28;1985;-60
2022/11/01 07:20:14;;;;;;;;;;;;;;;28.10;30.93;96146.75;5016932;28;1231;-59
2022/11/01 07:22:40;;;;;;;;;;;;;;;29.29;28.81;96154.94;5034676;28;1073;-60
2022/11/01 07:25:07;;;;;;;;;;;;;;;26.14;32.86;96138.06;5034621;28;1065;-59
2022/11/01 07:27:34;;;;;;;;;;;;;;;28.42;30.34;96143.44;5034429;28;1018;-59
2022/11/01 07:30:00;;;;;;;;;;;;;;;29.75;28.21;96158.31;5038224;28;1057;-58
2022/11/01 07:32:26;;;;;;;;;;;;;;;30.48;27.49;96161.50;5053993;28;1061;-60
2022/11/01 07:34:52;;;;;;;;;;;;;;;28.78;29.22;96147.63;5054358;28;1005;-60
2022/11/01 07:37:18;;;;;;;;;;;;;;;31.61;25.64;96172.50;5054136;28;1887;-59
2022/11/01 07:39:44;;;;;;;;;;;;;;;32.71;24.30;96174.13;5054023;28;1276;-59
2022/11/01 07:42:10;;;;;;;;;;;;;;;32.24;25.28;96164.13;5036364;28;1109;-59
2022/11/01 07:44:36;;;;;;;;;;;;;;;33.30;24.31;96169.91;5053959;28;1145;-59
2022/11/01 07:47:02;;;;;;;;;;;;;;;34.27;22.92;96179.75;5053829;28;1132;-59
2022/11/01 07:49:28;;;;;;;;;;;;;;;33.22;23.90;96164.91;5053784;28;1097;-59
2022/11/01 07:51:56;;;;;;;;;;;;;;;31.60;25.42;96157.81;5051349;28;1155;-59
2022/11/01 07:54:22;;;;;;;;;;;;;;;32.85;24.55;96161.38;5033838;28;1065;-59
2022/11/01 07:56:48;;;;;;;;;;;;;;;36.25;20.92;96177.22;5033903;28;1914;-59
2022/11/01 07:59:14;;;;;;;;;;;;;;;36.85;20.35;96178.56;5033691;28;1110;-59
2022/11/01 08:01:40;;;;;;;;;;;;;;;34.83;22.27;96175.75;5033706;28;970;-60
2022/11/01 08:04:06;;;;;;;;;;;;;;;32.88;24.17;96154.47;5033985;28;1050;-60
2022/11/01 08:06:32;;;;;;;;;;;;;;;31.68;24.83;96142.66;5033849;28;1081;-59
2022/11/01 08:08:58;;;;;;;;;;;;;;;34.13;22.91;96160.13;5033447;28;1034;-59
2022/11/01 08:11:24;;;;;;;;;;;;;;;34.34;22.51;96146.97;5033335;28;1118;-59
2022/11/01 08:13:51;;;;;;;;;;;;;;;31.52;25.09;96139.00;5033585;28;1121;-59
2022/11/01 08:16:17;;;;;;;;;;;;;;;28.96;27.87;96121.72;5033436;28;1020;-59
2022/11/01 08:18:43;;;;;;;;;;;;;;;27.18;31.10;96101.81;5033434;28;1974;-59
2022/11/01 08:21:11;;;;;;;;;;;;;;;25.59;33.30;96088.94;5033238;28;1204;-59
2022/11/01 08:23:37;;;;;;;;;;;;;;;24.60;35.40;96076.28;5033596;28;1053;-58
2022/11/01 08:26:05;;;;;;;;;;;;;;;25.42;34.44;96075.09;5033566;28;1026;-58
2022/11/01 08:28:31;;;;;;;;;;;;;;;29.78;27.79;96099.88;5033407;28;1030;-59
2022/11/01 08:30:57;;;;;;;;;;;;;;;29.76;27.90;96105.66;5027420;28;1045;-59
2022/11/01 08:33:23;;;;;;;;;;;;;;;29.81;27.18;96110.41;5053408;28;938;-59
2022/11/01 08:35:49;;;;;;;;;;;;;;;31.19;26.12;96115.34;5053209;28;1057;-59
2022/11/01 08:38:15;;;;;;;;;;;;;;;32.23;25.06;96112.63;5053315;28;1918;-59
2022/11/01 08:40:41;;;;;;;;;;;;;;;32.71;23.98;96118.75;5053171;28;1285;-59
2022/11/01 08:43:07;;;;;;;;;;;;;;;32.81;24.36;96120.69;5053153;28;1050;-59
2022/11/01 08:45:33;;;;;;;;;;;;;;;31.49;25.13;96111.91;5053028;28;1028;-59
2022/11/01 08:48:00;;;;;;;;;;;;;;;29.96;27.44;96104.22;5053125;28;1049;-59
2022/11/01 08:50:26;;;;;;;;;;;;;;;27.70;30.33;96084.47;5053211;28;1049;-58
2022/11/01 08:52:54;;;;;;;;;;;;;;;26.00;33.13;96065.38;5052080;28;1507;-58
2022/11/01 08:55:20;;;;;;;;;;;;;;;25.85;33.47;96065.81;5052907;28;1097;-58
2022/11/01 08:57:47;;;;;;;;;;;;;;;26.49;32.50;96064.09;5053020;28;1886;-59
2022/11/01 09:00:15;;;;;;;;;;;;;;;26.58;32.94;96061.81;5052907;28;1164;-58
2022/11/01 09:02:42;;;;;;;;;;;;;;;25.96;33.69;96056.81;5052756;28;1213;-58
2022/11/01 09:05:08;;;;;;;;;;;;;;;24.64;35.37;96032.91;5053155;28;1013;-58
2022/11/01 09:07:35;;;;;;;;;;;;;;;23.77;37.31;96026.38;5035161;28;1054;-58
2022/11/01 09:10:01;;;;;;;;;;;;;;;23.23;38.43;96030.53;5035021;28;1383;-58
2022/11/01 09:12:28;;;;;;;;;;;;;;;22.94;39.12;96023.75;5052833;28;1054;-58
2022/11/01 09:14:54;;;;;;;;;;;;;;;22.90;39.32;96022.53;5052782;28;1054;-57
2022/11/01 09:17:20;;;;;;;;;;;;;;;22.99;39.21;96015.72;5052888;28;1914;-58
2022/11/01 09:19:46;;;;;;;;;;;;;;;23.17;39.06;96021.31;5053030;28;1002;-58
2022/11/01 09:22:12;;;;;;;;;;;;;;;23.23;39.07;96016.88;5054000;28;1068;-58
2022/11/01 09:24:38;;;;;;;;;;;;;;;23.32;38.84;96012.03;5056681;28;1038;-58
2022/11/01 09:27:05;;;;;;;;;;;;;;;23.26;39.43;96005.56;5056630;28;1013;-58
2022/11/01 09:29:32;;;;;;;;;;;;;;;23.36;39.50;96005.88;5056161;28;1064;-58
2022/11/01 09:31:58;;;;;;;;;;;;;;;23.91;38.12;96012.63;5056001;28;1077;-58
2022/11/01 09:34:24;;;;;;;;;;;;;;;24.57;37.18;96002.94;5056341;28;1054;-58
2022/11/01 09:36:51;;;;;;;;;;;;;;;24.80;36.92;96009.59;5056482;28;1914;-58
2022/11/01 09:39:20;;;;;;;;;;;;;;;25.43;35.41;96019.28;5056234;28;1355;-58
2022/11/01 09:41:52;;;;;;;;;;;;;;;25.78;34.71;96013.88;5056393;28;935;-58
2022/11/01 09:44:22;;;;;;;;;;;;;;;26.46;33.92;96008.88;5056430;28;966;-58
2022/11/01 09:46:50;;;;;;;;;;;;;;;27.67;32.70;96016.25;5056410;28;1073;-58
2022/11/01 09:49:24;;;;;;;;;;;;;;;29.13;30.75;96016.25;5056253;28;1049;-58
2022/11/01 09:51:50;;;;;;;;;;;;;;;30.13;29.49;96013.09;5054294;28;1109;-59
2022/11/01 09:54:19;;;;;;;;;;;;;;;30.78;28.68;96021.25;5036163;28;1045;-59
2022/11/01 09:56:52;;;;;;;;;;;;;;;30.87;28.19;96025.97;5035959;28;1934;-59
2022/11/01 09:59:18;;;;;;;;;;;;;;;30.85;28.05;96019.91;5036193;28;1034;-59
2022/11/01 10:01:47;;;;;;;;;;;;;;;30.55;28.91;96009.53;5035985;28;1125;-59
2022/11/01 10:04:32;;;;;;;;;;;;;;;30.27;29.27;96013.44;5036009;28;971;-59
2022/11/01 10:07:01;;;;;;;;;;;;;;;29.88;28.94;96003.53;5035929;28;1052;-58
2022/11/01 10:09:37;;;;;;;;;;;;;;;29.57;29.72;95994.94;5035744;28;1050;-59
2022/11/01 10:12:15;;;;;;;;;;;;;;;29.16;30.76;95988.22;5036052;28;994;-58
2022/11/01 10:14:49;;;;;;;;;;;;;;;28.85;30.89;95984.22;5035951;28;1013;-58
2022/11/01 10:17:16;;;;;;;;;;;;;;;28.44;31.18;95970.75;5036116;28;1924;-58
2022/11/01 10:19:49;;;;;;;;;;;;;;;28.04;31.71;95971.84;5035532;28;1050;-58
2022/11/01 10:22:17;;;;;;;;;;;;;;;27.34;32.36;95967.59;5017798;28;1379;-58
2022/11/01 10:24:46;;;;;;;;;;;;;;;26.36;34.29;95948.38;5035758;28;970;-58
2022/11/01 10:27:39;;;;;;;;;;;;;;;25.53;35.52;95948.34;5035442;28;1062;-58
2022/11/01 10:30:09;;;;;;;;;;;;;;;24.80;36.87;95936.59;5016809;28;1207;-58
2022/11/01 10:32:38;;;;;;;;;;;;;;;24.38;37.74;95924.69;5054917;28;1220;-58
2022/11/01 10:35:17;;;;;;;;;;;;;;;24.08;38.52;95920.03;5055337;28;1038;-58
2022/11/01 10:38:03;;;;;;;;;;;;;;;23.86;38.88;95906.78;5055338;28;1898;-58
2022/11/01 10:40:39;;;;;;;;;;;;;;;23.70;39.05;95912.81;5055128;28;1332;-58
2022/11/01 10:43:18;;;;;;;;;;;;;;;23.61;39.13;95900.53;5055646;28;995;-58
2022/11/01 10:45:45;;;;;;;;;;;;;;;23.50;40.47;95892.00;5055195;28;1069;-58
2022/11/01 10:48:15;;;;;;;;;;;;;;;23.45;39.78;95896.44;5055117;28;1202;-58
2022/11/01 10:50:41;;;;;;;;;;;;;;;23.36;39.85;95891.28;5055096;28;1085;-58
2022/11/01 10:53:12;;;;;;;;;;;;;;;23.31;40.20;95882.09;5042480;28;1062;-58
2022/11/01 10:55:41;;;;;;;;;;;;;;;23.31;40.40;95887.56;5035090;28;1161;-58
2022/11/01 10:58:18;;;;;;;;;;;;;;;23.22;39.76;95877.97;5035059;28;1991;-58
2022/11/01 11:00:45;;;;;;;;;;;;;;;23.19;40.40;95882.81;5035067;28;1114;-58
2022/11/01 11:03:16;;;;;;;;;;;;;;;23.20;40.45;95878.19;5034803;28;1074;-58
2022/11/01 11:05:42;;;;;;;;;;;;;;;23.15;40.50;95876.16;5034815;28;1065;-59
2022/11/01 11:08:13;;;;;;;;;;;;;;;23.11;40.75;95866.75;5017513;28;1038;-58
2022/11/01 11:10:41;;;;;;;;;;;;;;;23.10;40.97;95865.06;5034966;28;1025;-58
2022/11/01 11:13:08;;;;;;;;;;;;;;;23.16;40.71;95869.66;5034736;28;1050;-58
2022/11/01 11:15:38;;;;;;;;;;;;;;;23.14;40.74;95866.28;5034677;28;962;-58
2022/11/01 11:18:07;;;;;;;;;;;;;;;23.17;40.73;95856.84;5034594;28;1906;-58
2022/11/01 11:20:36;;;;;;;;;;;;;;;23.08;40.54;95858.16;5034490;28;1204;-58
2022/11/01 11:23:02;;;;;;;;;;;;;;;23.06;40.91;95855.66;5016867;28;1197;-58
2022/11/01 11:25:33;;;;;;;;;;;;;;;23.10;40.87;95858.78;5016948;28;979;-57
2022/11/01 11:27:59;;;;;;;;;;;;;;;23.13;40.89;95853.72;5016989;28;1050;-58
2022/11/01 11:30:27;;;;;;;;;;;;;;;23.09;40.89;95857.94;5024189;28;1108;-58
2022/11/01 11:32:53;;;;;;;;;;;;;;;23.05;40.48;95851.28;5054148;28;1057;-58
2022/11/01 11:35:20;;;;;;;;;;;;;;;23.02;41.20;95842.66;5054381;28;1089;-58
2022/11/01 11:38:01;;;;;;;;;;;;;;;23.05;41.43;95844.97;5054264;28;1910;-58
2022/11/01 11:40:40;;;;;;;;;;;;;;;23.00;40.86;95840.16;5054034;28;1363;-59
2022/11/01 11:43:20;;;;;;;;;;;;;;;22.90;40.58;95837.09;5054088;28;1053;-58
2022/11/01 11:46:13;;;;;;;;;;;;;;;22.89;41.25;95829.97;5053381;28;986;-58
2022/11/01 11:48:46;;;;;;;;;;;;;;;22.89;41.77;95824.53;5050874;28;1059;-58
2022/11/01 11:51:12;;;;;;;;;;;;;;;22.89;41.60;95822.63;5053842;28;1620;-58
2022/11/01 11:53:40;;;;;;;;;;;;;;;22.91;41.69;95820.50;5036852;28;1107;-58
2022/11/01 11:56:08;;;;;;;;;;;;;;;22.89;41.92;95813.63;5034154;28;1009;-58
2022/11/01 11:58:36;;;;;;;;;;;;;;;22.90;41.28;95820.75;5033842;28;1906;-58
2022/11/01 12:01:14;;;;;;;;;;;;;;;22.91;41.17;95815.03;5033761;28;1026;-58
2022/11/01 12:03:48;;;;;;;;;;;;;;;22.85;41.14;95815.13;5033789;28;1054;-58
2022/11/01 12:06:17;;;;;;;;;;;;;;;22.82;41.18;95813.66;5033645;28;990;-58
2022/11/01 12:08:45;;;;;;;;;;;;;;;22.85;41.46;95804.22;5033882;28;1030;-58
2022/11/01 12:11:12;;;;;;;;;;;;;;;22.85;41.41;95807.75;5033757;28;1061;-58
2022/11/01 12:13:42;;;;;;;;;;;;;;;22.83;41.53;95803.59;5033633;28;1054;-58
2022/11/01 12:16:15;;;;;;;;;;;;;;;22.86;41.38;95797.69;5033690;28;978;-58
2022/11/01 12:18:52;;;;;;;;;;;;;;;22.84;40.93;95807.97;5033993;28;1989;-58
2022/11/01 12:21:22;;;;;;;;;;;;;;;22.81;41.45;95798.38;5033231;28;1377;-58
2022/11/01 12:23:51;;;;;;;;;;;;;;;22.73;41.00;95794.03;5033676;28;1032;-58
2022/11/01 12:26:19;;;;;;;;;;;;;;;22.76;41.08;95795.47;5033493;28;989;-58
2022/11/01 12:29:04;;;;;;;;;;;;;;;22.71;40.90;95792.56;5033503;28;1033;-58
2022/11/01 12:31:30;;;;;;;;;;;;;;;22.69;41.16;95792.81;5049521;28;1117;-58
2022/11/01 12:34:02;;;;;;;;;;;;;;;22.66;40.24;95789.69;5053503;28;1056;-58
2022/11/01 12:36:32;;;;;;;;;;;;;;;22.66;40.76;95779.59;5053433;28;966;-58
2022/11/01 12:39:17;;;;;;;;;;;;;;;22.68;41.25;95788.41;5053259;28;1906;-58
2022/11/01 12:41:54;;;;;;;;;;;;;;;22.73;41.37;95788.56;5033261;28;1029;-58
2022/11/01 12:44:32;;;;;;;;;;;;;;;22.72;40.65;95776.00;5033159;28;1074;-57
2022/11/01 12:47:16;;;;;;;;;;;;;;;22.76;40.71;95777.22;5033386;28;988;-57
2022/11/01 12:49:46;;;;;;;;;;;;;;;22.75;40.68;95781.00;5033274;28;1013;-58
2022/11/01 12:52:12;;;;;;;;;;;;;;;22.70;41.02;95771.81;5037636;28;1186;-58
2022/11/01 12:54:42;;;;;;;;;;;;;;;22.71;41.05;95773.47;5053276;28;1005;-58
2022/11/01 12:57:12;;;;;;;;;;;;;;;22.71;41.01;95781.66;5056180;28;1914;-58
2022/11/01 12:59:39;;;;;;;;;;;;;;;22.72;40.67;95773.25;5057214;28;1046;-58
2022/11/01 13:02:11;;;;;;;;;;;;;;;22.69;40.61;95771.00;5057237;28;1002;-58
2022/11/01 13:04:43;;;;;;;;;;;;;;;22.63;39.43;95782.75;5057148;28;982;-58
2022/11/01 13:07:31;;;;;;;;;;;;;;;22.58;39.52;95779.88;5057272;28;1037;-58
2022/11/01 13:10:13;;;;;;;;;;;;;;;22.60;39.94;95773.16;5046918;28;1196;-58
2022/11/01 13:12:39;;;;;;;;;;;;;;;22.60;39.68;95775.06;5056899;28;1051;-58
2022/11/01 13:15:18;;;;;;;;;;;;;;;22.62;39.54;95775.66;5056889;28;1032;-58
2022/11/01 13:17:44;;;;;;;;;;;;;;;22.59;39.61;95767.91;5057012;28;2386;-57